sensor_id;sensor_type;location;lat;lon;timestamp;temperature;humidity
262;DHT22;114;48.260;10.988;2023-03-31T00:00:45;8.10;50.30
262;DHT22;114;48.260;10.988;2023-03-31T00:03:14;8.00;51.20
262;DHT22;114;48.260;10.988;2023-03-31T00:05:48;7.90;52.90
262;DHT22;114;48.260;10.988;2023-03-31T00:08:17;7.80;55.50
262;DHT22;114;48.260;10.988;2023-03-31T00:10:45;7.70;57.80
262;DHT22;114;48.260;10.988;2023-03-31T00:13:11;7.60;59.20
262;DHT22;114;48.260;10.988;2023-03-31T00:15:38;7.50;61.20
262;DHT22;114;48.260;10.988;2023-03-31T00:18:05;7.40;63.60
262;DHT22;114;48.260;10.988;2023-03-31T00:20:32;7.30;65.00
262;DHT22;114;48.260;10.988;2023-03-31T00:23:03;7.30;66.50
262;DHT22;114;48.260;10.988;2023-03-31T00:25:39;7.20;68.20
262;DHT22;114;48.260;10.988;2023-03-31T00:28:06;7.10;70.00
262;DHT22;114;48.260;10.988;2023-03-31T00:30:31;7.10;71.30
262;DHT22;114;48.260;10.988;2023-03-31T00:32:57;7.10;72.60
262;DHT22;114;48.260;10.988;2023-03-31T00:35:23;7.20;72.60
262;DHT22;114;48.260;10.988;2023-03-31T00:37:48;7.30;71.00
262;DHT22;114;48.260;10.988;2023-03-31T00:40:14;7.50;68.60
262;DHT22;114;48.260;10.988;2023-03-31T00:42:41;7.60;64.30
262;DHT22;114;48.260;10.988;2023-03-31T00:48:02;7.90;54.50
262;DHT22;114;48.260;10.988;2023-03-31T00:50:34;8.10;50.10
262;DHT22;114;48.260;10.988;2023-03-31T00:53:13;8.30;44.30
262;DHT22;114;48.260;10.988;2023-03-31T00:55:49;8.30;43.30
262;DHT22;114;48.260;10.988;2023-03-31T00:58:16;8.30;42.30
262;DHT22;114;48.260;10.988;2023-03-31T01:00:46;8.20;43.40
262;DHT22;114;48.260;10.988;2023-03-31T01:03:14;8.20;43.00
262;DHT22;114;48.260;10.988;2023-03-31T01:05:56;8.40;41.10
262;DHT22;114;48.260;10.988;2023-03-31T01:08:25;8.40;39.80
262;DHT22;114;48.260;10.988;2023-03-31T01:10:55;8.50;38.00
262;DHT22;114;48.260;10.988;2023-03-31T01:13:22;8.40;37.80
262;DHT22;114;48.260;10.988;2023-03-31T01:15:48;8.50;36.50
262;DHT22;114;48.260;10.988;2023-03-31T01:18:15;8.60;34.70
262;DHT22;114;48.260;10.988;2023-03-31T01:29:16;8.70;30.70
262;DHT22;114;48.260;10.988;2023-03-31T01:32:33;8.70;31.50
262;DHT22;114;48.260;10.988;2023-03-31T01:40:27;8.70;30.60
262;DHT22;114;48.260;10.988;2023-03-31T01:43:05;8.70;31.50
262;DHT22;114;48.260;10.988;2023-03-31T01:45:47;8.80;29.70
262;DHT22;114;48.260;10.988;2023-03-31T01:48:26;8.90;28.20
262;DHT22;114;48.260;10.988;2023-03-31T01:51:10;8.90;28.50
262;DHT22;114;48.260;10.988;2023-03-31T01:54:05;8.90;28.30
262;DHT22;114;48.260;10.988;2023-03-31T01:56:34;9.00;26.80
262;DHT22;114;48.260;10.988;2023-03-31T01:59:02;9.00;27.00
262;DHT22;114;48.260;10.988;2023-03-31T02:01:52;8.90;27.70
262;DHT22;114;48.260;10.988;2023-03-31T02:04:33;8.90;28.00
262;DHT22;114;48.260;10.988;2023-03-31T02:07:13;9.00;27.00
262;DHT22;114;48.260;10.988;2023-03-31T02:09:43;9.10;25.20
262;DHT22;114;48.260;10.988;2023-03-31T02:12:11;9.30;23.80
262;DHT22;114;48.260;10.988;2023-03-31T02:14:39;9.30;22.30
262;DHT22;114;48.260;10.988;2023-03-31T02:17:07;9.40;21.10
262;DHT22;114;48.260;10.988;2023-03-31T02:19:38;9.50;21.10
262;DHT22;114;48.260;10.988;2023-03-31T02:22:07;9.50;20.30
262;DHT22;114;48.260;10.988;2023-03-31T02:24:35;9.70;18.80
262;DHT22;114;48.260;10.988;2023-03-31T02:27:18;9.60;20.00
262;DHT22;114;48.260;10.988;2023-03-31T02:29:45;9.60;20.60
262;DHT22;114;48.260;10.988;2023-03-31T02:32:44;9.50;22.20
262;DHT22;114;48.260;10.988;2023-03-31T02:35:18;9.40;23.80
262;DHT22;114;48.260;10.988;2023-03-31T02:37:46;9.40;24.70
262;DHT22;114;48.260;10.988;2023-03-31T02:40:18;9.40;26.10
262;DHT22;114;48.260;10.988;2023-03-31T02:42:45;9.40;27.10
262;DHT22;114;48.260;10.988;2023-03-31T02:45:38;9.40;27.60
262;DHT22;114;48.260;10.988;2023-03-31T02:48:31;9.40;28.40
262;DHT22;114;48.260;10.988;2023-03-31T02:53:38;9.30;36.70
262;DHT22;114;48.260;10.988;2023-03-31T02:59:24;9.70;33.50
262;DHT22;114;48.260;10.988;2023-03-31T03:02:17;9.90;33.80
262;DHT22;114;48.260;10.988;2023-03-31T03:07:45;9.70;44.20
262;DHT22;114;48.260;10.988;2023-03-31T03:12:51;9.40;54.70
262;DHT22;114;48.260;10.988;2023-03-31T03:15:48;9.40;61.10
262;DHT22;114;48.260;10.988;2023-03-31T03:18:17;9.20;67.10
262;DHT22;114;48.260;10.988;2023-03-31T03:20:44;9.10;69.70
262;DHT22;114;48.260;10.988;2023-03-31T03:23:19;9.10;71.40
262;DHT22;114;48.260;10.988;2023-03-31T03:25:45;9.00;74.30
262;DHT22;114;48.260;10.988;2023-03-31T03:28:11;9.00;76.20
262;DHT22;114;48.260;10.988;2023-03-31T03:30:37;9.00;77.10
262;DHT22;114;48.260;10.988;2023-03-31T03:33:03;9.00;79.50
262;DHT22;114;48.260;10.988;2023-03-31T03:35:31;9.00;82.10
262;DHT22;114;48.260;10.988;2023-03-31T03:37:57;8.90;83.10
262;DHT22;114;48.260;10.988;2023-03-31T03:40:23;8.90;84.30
262;DHT22;114;48.260;10.988;2023-03-31T03:42:48;8.90;87.00
262;DHT22;114;48.260;10.988;2023-03-31T03:45:14;8.90;87.70
262;DHT22;114;48.260;10.988;2023-03-31T03:47:41;8.80;90.10
262;DHT22;114;48.260;10.988;2023-03-31T03:50:08;8.80;90.70
262;DHT22;114;48.260;10.988;2023-03-31T03:52:34;8.80;91.30
262;DHT22;114;48.260;10.988;2023-03-31T03:55:01;8.80;92.10
262;DHT22;114;48.260;10.988;2023-03-31T03:57:27;8.80;92.70
262;DHT22;114;48.260;10.988;2023-03-31T03:59:53;8.80;92.20
262;DHT22;114;48.260;10.988;2023-03-31T04:02:18;8.70;92.50
262;DHT22;114;48.260;10.988;2023-03-31T04:04:45;8.70;93.20
262;DHT22;114;48.260;10.988;2023-03-31T04:07:12;8.70;94.00
262;DHT22;114;48.260;10.988;2023-03-31T04:09:37;8.70;94.40
262;DHT22;114;48.260;10.988;2023-03-31T04:12:04;8.70;94.60
262;DHT22;114;48.260;10.988;2023-03-31T04:14:30;8.70;95.30
262;DHT22;114;48.260;10.988;2023-03-31T04:16:55;8.60;95.70
262;DHT22;114;48.260;10.988;2023-03-31T04:19:23;8.60;96.40
262;DHT22;114;48.260;10.988;2023-03-31T04:21:52;8.60;96.40
262;DHT22;114;48.260;10.988;2023-03-31T04:24:26;8.60;96.40
262;DHT22;114;48.260;10.988;2023-03-31T04:26:58;8.60;96.40
262;DHT22;114;48.260;10.988;2023-03-31T04:29:24;8.50;96.70
262;DHT22;114;48.260;10.988;2023-03-31T04:31:54;8.50;97.50
262;DHT22;114;48.260;10.988;2023-03-31T04:34:24;8.40;98.20
262;DHT22;114;48.260;10.988;2023-03-31T04:36:52;8.40;98.80
262;DHT22;114;48.260;10.988;2023-03-31T04:39:21;8.30;99.30
262;DHT22;114;48.260;10.988;2023-03-31T04:41:59;8.30;99.70
262;DHT22;114;48.260;10.988;2023-03-31T04:44:27;8.20;99.90
262;DHT22;114;48.260;10.988;2023-03-31T04:46:53;8.20;99.90
262;DHT22;114;48.260;10.988;2023-03-31T04:49:22;8.20;99.90
262;DHT22;114;48.260;10.988;2023-03-31T04:51:47;8.20;99.90
262;DHT22;114;48.260;10.988;2023-03-31T04:54:13;8.20;99.90
262;DHT22;114;48.260;10.988;2023-03-31T04:56:39;8.20;99.90
262;DHT22;114;48.260;10.988;2023-03-31T04:59:04;8.20;99.90
262;DHT22;114;48.260;10.988;2023-03-31T05:01:31;8.20;99.90
262;DHT22;114;48.260;10.988;2023-03-31T05:04:01;8.20;99.90
262;DHT22;114;48.260;10.988;2023-03-31T05:06:28;8.20;99.90
262;DHT22;114;48.260;10.988;2023-03-31T05:08:55;8.30;99.90
262;DHT22;114;48.260;10.988;2023-03-31T05:11:21;8.20;99.90
262;DHT22;114;48.260;10.988;2023-03-31T05:13:47;8.30;99.90
262;DHT22;114;48.260;10.988;2023-03-31T05:16:13;8.30;99.90
262;DHT22;114;48.260;10.988;2023-03-31T05:18:40;8.30;99.90
262;DHT22;114;48.260;10.988;2023-03-31T05:21:15;8.30;99.90
262;DHT22;114;48.260;10.988;2023-03-31T05:23:41;8.30;99.90
262;DHT22;114;48.260;10.988;2023-03-31T05:26:08;8.20;99.90
262;DHT22;114;48.260;10.988;2023-03-31T05:28:35;8.20;99.90
262;DHT22;114;48.260;10.988;2023-03-31T05:31:02;8.20;99.90
262;DHT22;114;48.260;10.988;2023-03-31T05:33:28;8.20;99.90
262;DHT22;114;48.260;10.988;2023-03-31T05:35:56;8.20;99.90
262;DHT22;114;48.260;10.988;2023-03-31T05:38:26;8.10;99.90
262;DHT22;114;48.260;10.988;2023-03-31T05:40:57;8.20;99.90
262;DHT22;114;48.260;10.988;2023-03-31T05:43:22;8.20;99.90
262;DHT22;114;48.260;10.988;2023-03-31T05:45:48;8.30;99.90
262;DHT22;114;48.260;10.988;2023-03-31T05:48:15;8.30;99.90
262;DHT22;114;48.260;10.988;2023-03-31T05:50:42;8.30;99.90
262;DHT22;114;48.260;10.988;2023-03-31T05:53:08;8.30;99.90
262;DHT22;114;48.260;10.988;2023-03-31T05:55:37;8.40;99.90
262;DHT22;114;48.260;10.988;2023-03-31T05:58:03;8.40;99.90
262;DHT22;114;48.260;10.988;2023-03-31T06:00:35;8.40;99.90
262;DHT22;114;48.260;10.988;2023-03-31T06:03:02;8.50;99.90
262;DHT22;114;48.260;10.988;2023-03-31T06:05:29;8.60;99.90
262;DHT22;114;48.260;10.988;2023-03-31T06:07:56;8.60;99.90
262;DHT22;114;48.260;10.988;2023-03-31T06:10:22;8.70;99.90
262;DHT22;114;48.260;10.988;2023-03-31T06:12:49;8.70;99.90
262;DHT22;114;48.260;10.988;2023-03-31T06:15:14;8.70;99.90
262;DHT22;114;48.260;10.988;2023-03-31T06:17:40;8.80;99.90
262;DHT22;114;48.260;10.988;2023-03-31T06:20:06;8.80;99.90
262;DHT22;114;48.260;10.988;2023-03-31T06:22:32;8.80;99.90
262;DHT22;114;48.260;10.988;2023-03-31T06:24:58;8.80;99.90
262;DHT22;114;48.260;10.988;2023-03-31T06:27:25;8.80;99.90
262;DHT22;114;48.260;10.988;2023-03-31T06:29:50;8.80;99.90
262;DHT22;114;48.260;10.988;2023-03-31T06:32:16;8.80;99.90
262;DHT22;114;48.260;10.988;2023-03-31T06:34:42;8.80;99.90
262;DHT22;114;48.260;10.988;2023-03-31T06:37:07;8.80;99.90
262;DHT22;114;48.260;10.988;2023-03-31T06:39:34;8.80;99.90
262;DHT22;114;48.260;10.988;2023-03-31T06:42:00;8.80;99.90
262;DHT22;114;48.260;10.988;2023-03-31T06:44:25;8.90;99.50
262;DHT22;114;48.260;10.988;2023-03-31T06:46:51;8.80;99.20
262;DHT22;114;48.260;10.988;2023-03-31T06:49:16;8.80;99.00
262;DHT22;114;48.260;10.988;2023-03-31T06:51:42;8.90;98.20
262;DHT22;114;48.260;10.988;2023-03-31T06:54:08;8.90;96.90
262;DHT22;114;48.260;10.988;2023-03-31T06:56:34;8.80;98.20
262;DHT22;114;48.260;10.988;2023-03-31T06:59:00;8.70;99.20
262;DHT22;114;48.260;10.988;2023-03-31T07:01:26;8.80;99.90
262;DHT22;114;48.260;10.988;2023-03-31T07:03:52;8.80;99.90
262;DHT22;114;48.260;10.988;2023-03-31T07:06:17;8.80;99.90
262;DHT22;114;48.260;10.988;2023-03-31T07:08:44;8.80;99.90
262;DHT22;114;48.260;10.988;2023-03-31T07:11:10;8.80;99.90
262;DHT22;114;48.260;10.988;2023-03-31T07:13:36;8.80;99.90
262;DHT22;114;48.260;10.988;2023-03-31T07:16:01;8.90;99.90
262;DHT22;114;48.260;10.988;2023-03-31T07:18:30;8.90;99.90
262;DHT22;114;48.260;10.988;2023-03-31T07:20:59;8.90;99.90
262;DHT22;114;48.260;10.988;2023-03-31T07:23:25;9.00;99.90
262;DHT22;114;48.260;10.988;2023-03-31T07:25:51;9.00;99.90
262;DHT22;114;48.260;10.988;2023-03-31T07:28:16;9.20;99.90
262;DHT22;114;48.260;10.988;2023-03-31T07:30:42;9.40;99.90
262;DHT22;114;48.260;10.988;2023-03-31T07:33:08;9.50;99.90
262;DHT22;114;48.260;10.988;2023-03-31T07:35:37;9.60;99.90
262;DHT22;114;48.260;10.988;2023-03-31T07:38:04;9.70;99.00
262;DHT22;114;48.260;10.988;2023-03-31T07:40:30;9.80;98.20
262;DHT22;114;48.260;10.988;2023-03-31T07:42:57;10.00;97.10
262;DHT22;114;48.260;10.988;2023-03-31T07:45:25;10.00;94.70
262;DHT22;114;48.260;10.988;2023-03-31T07:47:50;9.90;93.90
262;DHT22;114;48.260;10.988;2023-03-31T07:50:19;9.90;94.30
262;DHT22;114;48.260;10.988;2023-03-31T07:52:47;9.90;93.10
262;DHT22;114;48.260;10.988;2023-03-31T07:55:14;10.00;93.00
262;DHT22;114;48.260;10.988;2023-03-31T07:57:39;10.10;92.00
262;DHT22;114;48.260;10.988;2023-03-31T08:00:07;10.20;91.50
262;DHT22;114;48.260;10.988;2023-03-31T08:02:36;10.50;90.90
262;DHT22;114;48.260;10.988;2023-03-31T08:05:02;10.60;86.00
262;DHT22;114;48.260;10.988;2023-03-31T08:07:28;10.80;79.20
262;DHT22;114;48.260;10.988;2023-03-31T08:09:56;10.90;74.90
262;DHT22;114;48.260;10.988;2023-03-31T08:12:23;11.00;67.30
262;DHT22;114;48.260;10.988;2023-03-31T08:14:48;11.20;70.70
262;DHT22;114;48.260;10.988;2023-03-31T08:17:14;11.20;64.60
262;DHT22;114;48.260;10.988;2023-03-31T08:19:40;11.10;56.50
262;DHT22;114;48.260;10.988;2023-03-31T08:22:08;11.00;56.50
262;DHT22;114;48.260;10.988;2023-03-31T08:24:34;11.00;58.70
262;DHT22;114;48.260;10.988;2023-03-31T08:27:02;10.90;56.40
262;DHT22;114;48.260;10.988;2023-03-31T08:29:29;10.90;44.50
262;DHT22;114;48.260;10.988;2023-03-31T08:31:54;11.00;43.80
262;DHT22;114;48.260;10.988;2023-03-31T08:34:24;11.20;28.30
262;DHT22;114;48.260;10.988;2023-03-31T08:36:51;11.20;37.60
262;DHT22;114;48.260;10.988;2023-03-31T08:39:17;11.00;32.60
262;DHT22;114;48.260;10.988;2023-03-31T08:44:55;10.50;65.20
262;DHT22;114;48.260;10.988;2023-03-31T08:47:23;10.70;66.30
262;DHT22;114;48.260;10.988;2023-03-31T08:49:57;11.10;64.00
262;DHT22;114;48.260;10.988;2023-03-31T08:52:33;11.30;57.80
262;DHT22;114;48.260;10.988;2023-03-31T08:55:06;11.40;48.40
262;DHT22;114;48.260;10.988;2023-03-31T08:57:42;11.50;49.80
262;DHT22;114;48.260;10.988;2023-03-31T09:00:16;11.40;48.20
262;DHT22;114;48.260;10.988;2023-03-31T09:02:59;11.30;48.00
262;DHT22;114;48.260;10.988;2023-03-31T09:06:21;11.40;50.60
262;DHT22;114;48.260;10.988;2023-03-31T09:08:40;11.70;44.90
262;DHT22;114;48.260;10.988;2023-03-31T09:11:29;11.90;40.50
262;DHT22;114;48.260;10.988;2023-03-31T09:14:30;12.00;34.00
262;DHT22;114;48.260;10.988;2023-03-31T09:22:25;12.00;28.00
262;DHT22;114;48.260;10.988;2023-03-31T09:25:13;11.90;22.00
262;DHT22;114;48.260;10.988;2023-03-31T09:27:42;11.90;25.80
262;DHT22;114;48.260;10.988;2023-03-31T09:32:37;12.30;25.10
262;DHT22;114;48.260;10.988;2023-03-31T09:35:24;12.30;22.50
262;DHT22;114;48.260;10.988;2023-03-31T09:37:51;12.30;20.80
262;DHT22;114;48.260;10.988;2023-03-31T09:40:25;12.50;20.00
262;DHT22;114;48.260;10.988;2023-03-31T09:43:04;12.70;16.30
262;DHT22;114;48.260;10.988;2023-03-31T09:45:32;12.70;17.30
262;DHT22;114;48.260;10.988;2023-03-31T09:48:14;12.90;17.10
262;DHT22;114;48.260;10.988;2023-03-31T09:50:56;13.00;14.60
262;DHT22;114;48.260;10.988;2023-03-31T09:53:42;13.10;14.60
262;DHT22;114;48.260;10.988;2023-03-31T09:56:12;13.20;3.50
262;DHT22;114;48.260;10.988;2023-03-31T09:58:43;13.30;6.80
262;DHT22;114;48.260;10.988;2023-03-31T10:01:11;13.10;1.00
262;DHT22;114;48.260;10.988;2023-03-31T10:03:50;13.20;1.00
262;DHT22;114;48.260;10.988;2023-03-31T10:06:18;13.40;1.00
262;DHT22;114;48.260;10.988;2023-03-31T10:08:50;13.60;1.00
262;DHT22;114;48.260;10.988;2023-03-31T10:11:16;13.80;1.00
262;DHT22;114;48.260;10.988;2023-03-31T10:13:58;13.80;1.00
262;DHT22;114;48.260;10.988;2023-03-31T10:16:33;13.90;1.00
262;DHT22;114;48.260;10.988;2023-03-31T10:19:16;14.00;1.00
262;DHT22;114;48.260;10.988;2023-03-31T10:21:46;14.20;1.00
262;DHT22;114;48.260;10.988;2023-03-31T10:24:18;14.20;1.00
262;DHT22;114;48.260;10.988;2023-03-31T10:26:48;14.50;1.00
262;DHT22;114;48.260;10.988;2023-03-31T10:29:29;14.50;1.00
262;DHT22;114;48.260;10.988;2023-03-31T10:32:02;14.80;1.00
262;DHT22;114;48.260;10.988;2023-03-31T10:34:29;14.90;1.00
262;DHT22;114;48.260;10.988;2023-03-31T10:36:55;14.40;1.00
262;DHT22;114;48.260;10.988;2023-03-31T10:39:29;14.40;1.00
262;DHT22;114;48.260;10.988;2023-03-31T10:41:56;14.50;1.00
262;DHT22;114;48.260;10.988;2023-03-31T10:44:34;14.50;1.00
262;DHT22;114;48.260;10.988;2023-03-31T10:47:19;14.80;1.00
262;DHT22;114;48.260;10.988;2023-03-31T10:49:49;15.00;1.00
262;DHT22;114;48.260;10.988;2023-03-31T10:52:21;14.90;1.00
262;DHT22;114;48.260;10.988;2023-03-31T10:54:54;14.60;1.00
262;DHT22;114;48.260;10.988;2023-03-31T11:14:46;12.50;1.00
262;DHT22;114;48.260;10.988;2023-03-31T11:22:49;12.60;1.00
262;DHT22;114;48.260;10.988;2023-03-31T11:30:45;13.50;1.00
262;DHT22;114;48.260;10.988;2023-03-31T11:36:22;13.80;1.00
262;DHT22;114;48.260;10.988;2023-03-31T11:39:17;13.70;1.00
262;DHT22;114;48.260;10.988;2023-03-31T11:41:57;13.40;1.00
262;DHT22;114;48.260;10.988;2023-03-31T11:44:24;14.10;1.00
262;DHT22;114;48.260;10.988;2023-03-31T11:47:05;14.70;1.00
262;DHT22;114;48.260;10.988;2023-03-31T11:49:37;14.90;1.00
262;DHT22;114;48.260;10.988;2023-03-31T11:52:15;14.50;1.00
262;DHT22;114;48.260;10.988;2023-03-31T11:55:00;14.20;1.00
262;DHT22;114;48.260;10.988;2023-03-31T12:00:20;14.10;1.00
262;DHT22;114;48.260;10.988;2023-03-31T12:03:15;14.00;1.00
262;DHT22;114;48.260;10.988;2023-03-31T12:06:05;14.10;1.00
262;DHT22;114;48.260;10.988;2023-03-31T12:09:07;14.40;1.00
262;DHT22;114;48.260;10.988;2023-03-31T12:14:38;16.10;1.00
262;DHT22;114;48.260;10.988;2023-03-31T12:22:43;16.40;1.00
262;DHT22;114;48.260;10.988;2023-03-31T12:25:19;15.30;1.00
262;DHT22;114;48.260;10.988;2023-03-31T12:27:50;15.00;1.00
262;DHT22;114;48.260;10.988;2023-03-31T12:30:36;15.00;1.00
262;DHT22;114;48.260;10.988;2023-03-31T12:33:16;14.80;1.00
262;DHT22;114;48.260;10.988;2023-03-31T12:35:56;14.40;1.00
262;DHT22;114;48.260;10.988;2023-03-31T12:57:30;13.30;1.00
262;DHT22;114;48.260;10.988;2023-03-31T13:02:30;13.10;1.00
262;DHT22;114;48.260;10.988;2023-03-31T13:04:56;13.10;1.00
262;DHT22;114;48.260;10.988;2023-03-31T13:12:38;12.70;1.00
262;DHT22;114;48.260;10.988;2023-03-31T13:15:12;13.30;1.00
262;DHT22;114;48.260;10.988;2023-03-31T13:17:38;13.20;1.00
262;DHT22;114;48.260;10.988;2023-03-31T13:22:46;12.50;1.00
262;DHT22;114;48.260;10.988;2023-03-31T13:27:57;11.70;5.30
262;DHT22;114;48.260;10.988;2023-03-31T13:39:26;11.40;8.10
262;DHT22;114;48.260;10.988;2023-03-31T13:45:25;14.10;1.00
262;DHT22;114;48.260;10.988;2023-03-31T13:48:36;15.80;1.00
262;DHT22;114;48.260;10.988;2023-03-31T14:08:42;13.70;1.00
262;DHT22;114;48.260;10.988;2023-03-31T14:11:26;12.90;1.00
262;DHT22;114;48.260;10.988;2023-03-31T14:14:11;12.60;1.00
262;DHT22;114;48.260;10.988;2023-03-31T14:16:48;12.40;1.00
262;DHT22;114;48.260;10.988;2023-03-31T14:25:12;11.80;1.00
262;DHT22;114;48.260;10.988;2023-03-31T14:30:38;11.60;1.00
262;DHT22;114;48.260;10.988;2023-03-31T14:38:21;9.80;30.00
262;DHT22;114;48.260;10.988;2023-03-31T14:40:51;9.90;35.10
262;DHT22;114;48.260;10.988;2023-03-31T14:43:26;10.10;31.70
262;DHT22;114;48.260;10.988;2023-03-31T14:46:00;11.40;26.50
262;DHT22;114;48.260;10.988;2023-03-31T14:48:28;13.70;4.90
262;DHT22;114;48.260;10.988;2023-03-31T14:51:01;14.60;1.00
262;DHT22;114;48.260;10.988;2023-03-31T14:53:27;14.00;1.00
262;DHT22;114;48.260;10.988;2023-03-31T14:56:06;15.90;1.00
262;DHT22;114;48.260;10.988;2023-03-31T14:58:36;16.20;1.00
262;DHT22;114;48.260;10.988;2023-03-31T15:01:04;15.10;1.00
262;DHT22;114;48.260;10.988;2023-03-31T15:03:35;16.50;1.00
262;DHT22;114;48.260;10.988;2023-03-31T15:06:04;16.30;1.00
262;DHT22;114;48.260;10.988;2023-03-31T15:08:31;17.20;1.00
262;DHT22;114;48.260;10.988;2023-03-31T15:10:59;16.00;1.00
262;DHT22;114;48.260;10.988;2023-03-31T15:13:36;15.60;1.00
262;DHT22;114;48.260;10.988;2023-03-31T15:16:35;15.00;1.00
262;DHT22;114;48.260;10.988;2023-03-31T15:19:20;14.50;1.00
262;DHT22;114;48.260;10.988;2023-03-31T15:21:57;13.90;1.00
262;DHT22;114;48.260;10.988;2023-03-31T15:24:27;13.20;1.00
262;DHT22;114;48.260;10.988;2023-03-31T15:26:58;12.40;1.00
262;DHT22;114;48.260;10.988;2023-03-31T15:29:39;12.00;1.00
262;DHT22;114;48.260;10.988;2023-03-31T15:32:18;12.00;1.00
262;DHT22;114;48.260;10.988;2023-03-31T15:34:47;11.90;1.00
262;DHT22;114;48.260;10.988;2023-03-31T15:37:15;11.70;1.00
262;DHT22;114;48.260;10.988;2023-03-31T15:39:44;11.70;1.00
262;DHT22;114;48.260;10.988;2023-03-31T15:42:11;11.40;1.00
262;DHT22;114;48.260;10.988;2023-03-31T15:44:45;11.30;1.00
262;DHT22;114;48.260;10.988;2023-03-31T15:47:18;11.30;2.40
262;DHT22;114;48.260;10.988;2023-03-31T15:49:57;11.30;3.70
262;DHT22;114;48.260;10.988;2023-03-31T15:52:33;11.30;4.80
262;DHT22;114;48.260;10.988;2023-03-31T15:54:59;11.20;4.80
262;DHT22;114;48.260;10.988;2023-03-31T15:57:34;11.20;3.60
262;DHT22;114;48.260;10.988;2023-03-31T16:00:00;11.40;4.30
262;DHT22;114;48.260;10.988;2023-03-31T16:02:41;11.40;1.40
262;DHT22;114;48.260;10.988;2023-03-31T16:08:23;11.30;4.20
262;DHT22;114;48.260;10.988;2023-03-31T16:11:00;11.10;6.00
262;DHT22;114;48.260;10.988;2023-03-31T16:13:29;11.10;7.30
262;DHT22;114;48.260;10.988;2023-03-31T16:15:57;11.00;7.80
262;DHT22;114;48.260;10.988;2023-03-31T16:18:34;10.90;9.10
262;DHT22;114;48.260;10.988;2023-03-31T16:21:03;10.90;10.60
262;DHT22;114;48.260;10.988;2023-03-31T16:23:32;10.80;12.30
262;DHT22;114;48.260;10.988;2023-03-31T16:26:00;10.60;18.60
262;DHT22;114;48.260;10.988;2023-03-31T16:28:29;10.30;31.60
262;DHT22;114;48.260;10.988;2023-03-31T16:30:55;9.60;50.00
262;DHT22;114;48.260;10.988;2023-03-31T16:33:31;9.00;78.20
262;DHT22;114;48.260;10.988;2023-03-31T16:36:16;8.60;88.20
262;DHT22;114;48.260;10.988;2023-03-31T16:38:42;8.40;85.00
262;DHT22;114;48.260;10.988;2023-03-31T16:41:09;8.20;82.60
262;DHT22;114;48.260;10.988;2023-03-31T16:43:35;8.20;83.30
262;DHT22;114;48.260;10.988;2023-03-31T16:46:02;8.10;77.20
262;DHT22;114;48.260;10.988;2023-03-31T16:48:29;8.20;69.30
262;DHT22;114;48.260;10.988;2023-03-31T16:50:58;8.30;52.80
262;DHT22;114;48.260;10.988;2023-03-31T16:53:35;8.40;56.30
262;DHT22;114;48.260;10.988;2023-03-31T16:56:05;8.50;51.60
262;DHT22;114;48.260;10.988;2023-03-31T16:58:36;8.50;52.20
262;DHT22;114;48.260;10.988;2023-03-31T17:01:02;8.40;49.50
262;DHT22;114;48.260;10.988;2023-03-31T17:03:29;8.40;57.00
262;DHT22;114;48.260;10.988;2023-03-31T17:05:56;8.40;51.80
262;DHT22;114;48.260;10.988;2023-03-31T17:08:24;8.50;53.30
262;DHT22;114;48.260;10.988;2023-03-31T17:10:55;8.30;56.40
262;DHT22;114;48.260;10.988;2023-03-31T17:13:26;8.30;54.40
262;DHT22;114;48.260;10.988;2023-03-31T17:15:52;8.20;56.70
262;DHT22;114;48.260;10.988;2023-03-31T17:18:19;8.30;58.40
262;DHT22;114;48.260;10.988;2023-03-31T17:20:45;8.40;50.60
262;DHT22;114;48.260;10.988;2023-03-31T17:23:11;8.10;52.80
262;DHT22;114;48.260;10.988;2023-03-31T17:25:38;8.00;56.80
262;DHT22;114;48.260;10.988;2023-03-31T17:28:04;8.00;54.30
262;DHT22;114;48.260;10.988;2023-03-31T17:30:30;8.00;55.50
262;DHT22;114;48.260;10.988;2023-03-31T17:32:57;7.90;50.20
262;DHT22;114;48.260;10.988;2023-03-31T17:35:24;7.80;50.10
262;DHT22;114;48.260;10.988;2023-03-31T17:37:50;7.80;51.80
262;DHT22;114;48.260;10.988;2023-03-31T17:40:21;7.80;52.40
262;DHT22;114;48.260;10.988;2023-03-31T17:42:47;7.70;53.20
262;DHT22;114;48.260;10.988;2023-03-31T17:45:14;7.70;51.80
262;DHT22;114;48.260;10.988;2023-03-31T17:47:41;7.70;51.80
262;DHT22;114;48.260;10.988;2023-03-31T17:50:09;7.60;52.80
262;DHT22;114;48.260;10.988;2023-03-31T17:52:35;7.60;53.60
262;DHT22;114;48.260;10.988;2023-03-31T17:55:02;7.60;52.10
262;DHT22;114;48.260;10.988;2023-03-31T17:57:29;7.60;52.30
262;DHT22;114;48.260;10.988;2023-03-31T17:59:55;7.70;46.50
262;DHT22;114;48.260;10.988;2023-03-31T18:02:22;7.70;46.10
262;DHT22;114;48.260;10.988;2023-03-31T18:04:48;7.80;47.00
262;DHT22;114;48.260;10.988;2023-03-31T18:07:14;7.80;46.70
262;DHT22;114;48.260;10.988;2023-03-31T18:09:43;7.80;45.90
262;DHT22;114;48.260;10.988;2023-03-31T18:12:08;7.80;49.20
262;DHT22;114;48.260;10.988;2023-03-31T18:14:34;7.70;44.60
262;DHT22;114;48.260;10.988;2023-03-31T18:17:00;7.70;46.20
262;DHT22;114;48.260;10.988;2023-03-31T18:19:26;7.70;46.70
262;DHT22;114;48.260;10.988;2023-03-31T18:21:52;7.60;46.90
262;DHT22;114;48.260;10.988;2023-03-31T18:24:17;7.60;47.60
262;DHT22;114;48.260;10.988;2023-03-31T18:26:45;7.60;47.10
262;DHT22;114;48.260;10.988;2023-03-31T18:29:17;7.60;47.80
262;DHT22;114;48.260;10.988;2023-03-31T18:31:42;7.60;46.40
262;DHT22;114;48.260;10.988;2023-03-31T18:34:08;7.60;48.00
262;DHT22;114;48.260;10.988;2023-03-31T18:36:34;7.60;49.90
262;DHT22;114;48.260;10.988;2023-03-31T18:38:59;7.60;48.00
262;DHT22;114;48.260;10.988;2023-03-31T18:41:26;7.60;49.90
262;DHT22;114;48.260;10.988;2023-03-31T18:43:52;7.60;48.80
262;DHT22;114;48.260;10.988;2023-03-31T18:46:18;7.60;47.30
262;DHT22;114;48.260;10.988;2023-03-31T18:48:44;7.60;46.00
262;DHT22;114;48.260;10.988;2023-03-31T18:51:11;7.60;43.10
262;DHT22;114;48.260;10.988;2023-03-31T18:53:37;7.60;44.60
262;DHT22;114;48.260;10.988;2023-03-31T18:56:03;7.60;44.30
262;DHT22;114;48.260;10.988;2023-03-31T18:58:31;7.60;41.40
262;DHT22;114;48.260;10.988;2023-03-31T19:00:58;7.60;40.40
262;DHT22;114;48.260;10.988;2023-03-31T19:03:25;7.60;38.80
262;DHT22;114;48.260;10.988;2023-03-31T19:06:02;7.60;36.60
262;DHT22;114;48.260;10.988;2023-03-31T19:08:29;7.60;37.40
262;DHT22;114;48.260;10.988;2023-03-31T19:11:12;7.60;39.00
262;DHT22;114;48.260;10.988;2023-03-31T19:13:39;7.60;36.50
262;DHT22;114;48.260;10.988;2023-03-31T19:16:11;7.60;35.50
262;DHT22;114;48.260;10.988;2023-03-31T19:18:38;7.60;35.00
262;DHT22;114;48.260;10.988;2023-03-31T19:21:04;7.60;35.50
262;DHT22;114;48.260;10.988;2023-03-31T19:23:31;7.60;34.90
262;DHT22;114;48.260;10.988;2023-03-31T19:25:57;7.60;33.20
262;DHT22;114;48.260;10.988;2023-03-31T19:28:25;7.60;32.80
262;DHT22;114;48.260;10.988;2023-03-31T19:30:53;7.60;33.80
262;DHT22;114;48.260;10.988;2023-03-31T19:33:21;7.60;30.80
262;DHT22;114;48.260;10.988;2023-03-31T19:35:47;7.70;30.60